sensor_id;sensor_type;location;lat;lon;timestamp;P1;durP1;ratioP1;P2;durP2;ratioP2
28844;SDS011;15976;47.938;7.758;2023-03-01T00:01:16;23.95;;;13.43;;
28844;SDS011;15976;47.938;7.758;2023-03-01T00:03:47;25.88;;;13.80;;
28844;SDS011;15976;47.938;7.758;2023-03-01T00:06:15;24.13;;;14.25;;
28844;SDS011;15976;47.938;7.758;2023-03-01T00:08:42;23.60;;;13.13;;
28844;SDS011;15976;47.938;7.758;2023-03-01T00:11:11;22.52;;;14.07;;
28844;SDS011;15976;47.938;7.758;2023-03-01T00:13:45;22.00;;;13.52;;
28844;SDS011;15976;47.938;7.758;2023-03-01T00:16:15;21.58;;;12.57;;
28844;SDS011;15976;47.938;7.758;2023-03-01T00:18:44;25.52;;;13.70;;
28844;SDS011;15976;47.938;7.758;2023-03-01T00:21:12;21.08;;;13.30;;
28844;SDS011;15976;47.938;7.758;2023-03-01T00:23:39;23.15;;;12.63;;
28844;SDS011;15976;47.938;7.758;2023-03-01T00:26:08;22.85;;;13.50;;
28844;SDS011;15976;47.938;7.758;2023-03-01T00:28:38;20.40;;;13.02;;
28844;SDS011;15976;47.938;7.758;2023-03-01T00:31:11;22.48;;;13.35;;
28844;SDS011;15976;47.938;7.758;2023-03-01T00:33:40;23.42;;;13.90;;
28844;SDS011;15976;47.938;7.758;2023-03-01T00:36:09;22.60;;;12.93;;
28844;SDS011;15976;47.938;7.758;2023-03-01T00:38:37;21.63;;;13.05;;
28844;SDS011;15976;47.938;7.758;2023-03-01T00:41:13;21.25;;;12.98;;
28844;SDS011;15976;47.938;7.758;2023-03-01T00:43:42;23.90;;;13.55;;
28844;SDS011;15976;47.938;7.758;2023-03-01T00:46:12;28.92;;;13.48;;
28844;SDS011;15976;47.938;7.758;2023-03-01T00:48:41;24.30;;;14.13;;
28844;SDS011;15976;47.938;7.758;2023-03-01T00:51:09;28.15;;;14.98;;
28844;SDS011;15976;47.938;7.758;2023-03-01T00:53:38;24.30;;;15.55;;
28844;SDS011;15976;47.938;7.758;2023-03-01T00:56:06;24.65;;;13.50;;
28844;SDS011;15976;47.938;7.758;2023-03-01T00:58:35;22.17;;;13.15;;
28844;SDS011;15976;47.938;7.758;2023-03-01T01:01:12;27.05;;;14.23;;
28844;SDS011;15976;47.938;7.758;2023-03-01T01:06:13;23.45;;;13.07;;
28844;SDS011;15976;47.938;7.758;2023-03-01T01:08:41;21.73;;;13.15;;
28844;SDS011;15976;47.938;7.758;2023-03-01T01:11:09;27.30;;;13.90;;
28844;SDS011;15976;47.938;7.758;2023-03-01T01:13:37;23.42;;;13.45;;
28844;SDS011;15976;47.938;7.758;2023-03-01T01:16:06;24.17;;;13.48;;
28844;SDS011;15976;47.938;7.758;2023-03-01T01:18:34;21.38;;;13.10;;
28844;SDS011;15976;47.938;7.758;2023-03-01T01:21:06;23.10;;;13.27;;
28844;SDS011;15976;47.938;7.758;2023-03-01T01:23:36;21.02;;;12.80;;
28844;SDS011;15976;47.938;7.758;2023-03-01T01:26:06;20.42;;;13.10;;
28844;SDS011;15976;47.938;7.758;2023-03-01T01:28:38;22.85;;;13.55;;
28844;SDS011;15976;47.938;7.758;2023-03-01T01:31:06;23.52;;;14.18;;
28844;SDS011;15976;47.938;7.758;2023-03-01T01:33:34;22.02;;;12.85;;
28844;SDS011;15976;47.938;7.758;2023-03-01T01:36:01;24.63;;;13.40;;
28844;SDS011;15976;47.938;7.758;2023-03-01T01:38:28;20.92;;;13.27;;
28844;SDS011;15976;47.938;7.758;2023-03-01T01:40:55;23.58;;;13.13;;
28844;SDS011;15976;47.938;7.758;2023-03-01T01:43:27;20.80;;;12.52;;
28844;SDS011;15976;47.938;7.758;2023-03-01T01:45:58;21.63;;;12.63;;
28844;SDS011;15976;47.938;7.758;2023-03-01T01:48:41;23.40;;;13.30;;
28844;SDS011;15976;47.938;7.758;2023-03-01T01:51:23;21.63;;;13.23;;
28844;SDS011;15976;47.938;7.758;2023-03-01T01:54:11;23.02;;;13.30;;
28844;SDS011;15976;47.938;7.758;2023-03-01T01:56:47;25.02;;;13.68;;
28844;SDS011;15976;47.938;7.758;2023-03-01T01:59:20;23.08;;;13.15;;
28844;SDS011;15976;47.938;7.758;2023-03-01T02:01:51;21.95;;;12.82;;
28844;SDS011;15976;47.938;7.758;2023-03-01T02:04:19;22.75;;;12.57;;
28844;SDS011;15976;47.938;7.758;2023-03-01T02:06:51;22.77;;;13.18;;
28844;SDS011;15976;47.938;7.758;2023-03-01T02:09:41;24.23;;;13.68;;
28844;SDS011;15976;47.938;7.758;2023-03-01T02:12:12;25.92;;;14.23;;
28844;SDS011;15976;47.938;7.758;2023-03-01T02:14:44;25.70;;;14.15;;
28844;SDS011;15976;47.938;7.758;2023-03-01T02:17:11;27.42;;;13.52;;
28844;SDS011;15976;47.938;7.758;2023-03-01T02:22:34;25.35;;;13.65;;
28844;SDS011;15976;47.938;7.758;2023-03-01T02:28:38;22.27;;;13.23;;
28844;SDS011;15976;47.938;7.758;2023-03-01T02:30:48;24.77;;;14.15;;
28844;SDS011;15976;47.938;7.758;2023-03-01T02:33:36;26.65;;;14.52;;
28844;SDS011;15976;47.938;7.758;2023-03-01T02:36:06;23.05;;;14.85;;
28844;SDS011;15976;47.938;7.758;2023-03-01T02:38:38;25.92;;;14.57;;
28844;SDS011;15976;47.938;7.758;2023-03-01T02:41:07;26.90;;;14.80;;
28844;SDS011;15976;47.938;7.758;2023-03-01T02:43:37;28.08;;;14.73;;
28844;SDS011;15976;47.938;7.758;2023-03-01T02:46:14;25.48;;;14.90;;
28844;SDS011;15976;47.938;7.758;2023-03-01T02:48:45;25.63;;;14.07;;
28844;SDS011;15976;47.938;7.758;2023-03-01T02:51:21;27.30;;;15.55;;
28844;SDS011;15976;47.938;7.758;2023-03-01T02:56:47;25.67;;;15.10;;
28844;SDS011;15976;47.938;7.758;2023-03-01T02:59:19;26.52;;;15.48;;
28844;SDS011;15976;47.938;7.758;2023-03-01T03:01:49;25.75;;;14.63;;
28844;SDS011;15976;47.938;7.758;2023-03-01T03:04:17;25.65;;;15.02;;
28844;SDS011;15976;47.938;7.758;2023-03-01T03:06:49;29.17;;;15.15;;
28844;SDS011;15976;47.938;7.758;2023-03-01T03:09:17;26.48;;;14.35;;
28844;SDS011;15976;47.938;7.758;2023-03-01T03:11:45;26.02;;;13.95;;
28844;SDS011;15976;47.938;7.758;2023-03-01T03:14:14;24.55;;;13.85;;
28844;SDS011;15976;47.938;7.758;2023-03-01T03:16:46;25.77;;;13.95;;
28844;SDS011;15976;47.938;7.758;2023-03-01T03:19:15;25.65;;;14.38;;
28844;SDS011;15976;47.938;7.758;2023-03-01T03:21:44;24.33;;;15.15;;
28844;SDS011;15976;47.938;7.758;2023-03-01T03:24:11;23.88;;;13.93;;
28844;SDS011;15976;47.938;7.758;2023-03-01T03:26:38;24.35;;;14.10;;
28844;SDS011;15976;47.938;7.758;2023-03-01T03:29:06;27.33;;;14.80;;
28844;SDS011;15976;47.938;7.758;2023-03-01T03:31:33;24.73;;;14.45;;
28844;SDS011;15976;47.938;7.758;2023-03-01T03:34:00;26.95;;;15.57;;
28844;SDS011;15976;47.938;7.758;2023-03-01T03:36:27;25.42;;;15.00;;
28844;SDS011;15976;47.938;7.758;2023-03-01T03:38:55;23.55;;;14.15;;
28844;SDS011;15976;47.938;7.758;2023-03-01T03:41:22;26.60;;;15.02;;
28844;SDS011;15976;47.938;7.758;2023-03-01T03:43:49;25.20;;;14.10;;
28844;SDS011;15976;47.938;7.758;2023-03-01T03:46:16;26.83;;;14.52;;
28844;SDS011;15976;47.938;7.758;2023-03-01T03:48:44;25.52;;;14.95;;
28844;SDS011;15976;47.938;7.758;2023-03-01T03:51:13;25.30;;;13.52;;
28844;SDS011;15976;47.938;7.758;2023-03-01T03:53:42;25.15;;;14.27;;
28844;SDS011;15976;47.938;7.758;2023-03-01T03:56:10;27.38;;;14.75;;
28844;SDS011;15976;47.938;7.758;2023-03-01T03:58:37;24.30;;;15.07;;
28844;SDS011;15976;47.938;7.758;2023-03-01T04:01:04;26.98;;;14.73;;
28844;SDS011;15976;47.938;7.758;2023-03-01T04:03:34;26.58;;;13.95;;
28844;SDS011;15976;47.938;7.758;2023-03-01T04:06:02;28.00;;;14.82;;
28844;SDS011;15976;47.938;7.758;2023-03-01T04:08:30;28.05;;;14.38;;
28844;SDS011;15976;47.938;7.758;2023-03-01T04:10:59;26.90;;;14.88;;
28844;SDS011;15976;47.938;7.758;2023-03-01T04:13:48;27.38;;;14.35;;
28844;SDS011;15976;47.938;7.758;2023-03-01T04:16:15;28.73;;;14.35;;
28844;SDS011;15976;47.938;7.758;2023-03-01T04:18:44;26.77;;;14.70;;
28844;SDS011;15976;47.938;7.758;2023-03-01T04:21:11;27.52;;;14.30;;
28844;SDS011;15976;47.938;7.758;2023-03-01T04:23:38;25.88;;;13.65;;
28844;SDS011;15976;47.938;7.758;2023-03-01T04:26:07;23.75;;;13.27;;
28844;SDS011;15976;47.938;7.758;2023-03-01T04:28:39;25.90;;;14.48;;
28844;SDS011;15976;47.938;7.758;2023-03-01T04:31:12;25.48;;;13.63;;
28844;SDS011;15976;47.938;7.758;2023-03-01T04:33:46;28.58;;;15.05;;
28844;SDS011;15976;47.938;7.758;2023-03-01T04:36:21;28.85;;;15.02;;
28844;SDS011;15976;47.938;7.758;2023-03-01T04:38:50;24.27;;;14.05;;
28844;SDS011;15976;47.938;7.758;2023-03-01T04:41:19;26.33;;;13.95;;
28844;SDS011;15976;47.938;7.758;2023-03-01T04:43:47;24.33;;;14.80;;
28844;SDS011;15976;47.938;7.758;2023-03-01T04:46:16;26.33;;;15.32;;
28844;SDS011;15976;47.938;7.758;2023-03-01T04:48:45;28.00;;;14.93;;
28844;SDS011;15976;47.938;7.758;2023-03-01T04:51:13;27.15;;;15.55;;
28844;SDS011;15976;47.938;7.758;2023-03-01T04:53:42;27.20;;;15.30;;
28844;SDS011;15976;47.938;7.758;2023-03-01T04:56:10;28.88;;;15.60;;
28844;SDS011;15976;47.938;7.758;2023-03-01T04:58:40;27.02;;;15.23;;
28844;SDS011;15976;47.938;7.758;2023-03-01T05:01:11;28.38;;;16.20;;
28844;SDS011;15976;47.938;7.758;2023-03-01T05:03:43;26.55;;;15.10;;
28844;SDS011;15976;47.938;7.758;2023-03-01T05:06:12;26.60;;;15.25;;
28844;SDS011;15976;47.938;7.758;2023-03-01T05:08:41;28.02;;;16.23;;
28844;SDS011;15976;47.938;7.758;2023-03-01T05:11:08;29.40;;;15.73;;
28844;SDS011;15976;47.938;7.758;2023-03-01T05:13:36;25.80;;;15.30;;
28844;SDS011;15976;47.938;7.758;2023-03-01T05:16:05;26.10;;;15.52;;
28844;SDS011;15976;47.938;7.758;2023-03-01T05:18:38;26.52;;;15.30;;
28844;SDS011;15976;47.938;7.758;2023-03-01T05:21:10;28.30;;;15.00;;
28844;SDS011;15976;47.938;7.758;2023-03-01T05:23:39;29.17;;;15.93;;
28844;SDS011;15976;47.938;7.758;2023-03-01T05:26:06;27.10;;;15.25;;
28844;SDS011;15976;47.938;7.758;2023-03-01T05:28:47;28.58;;;15.70;;
28844;SDS011;15976;47.938;7.758;2023-03-01T05:31:14;30.98;;;15.57;;
28844;SDS011;15976;47.938;7.758;2023-03-01T05:33:42;25.95;;;15.30;;
28844;SDS011;15976;47.938;7.758;2023-03-01T05:36:09;29.23;;;15.57;;
28844;SDS011;15976;47.938;7.758;2023-03-01T05:38:37;29.30;;;15.75;;
28844;SDS011;15976;47.938;7.758;2023-03-01T05:41:04;28.30;;;16.10;;
28844;SDS011;15976;47.938;7.758;2023-03-01T05:43:31;30.15;;;16.25;;
28844;SDS011;15976;47.938;7.758;2023-03-01T05:46:00;32.72;;;16.98;;
28844;SDS011;15976;47.938;7.758;2023-03-01T05:48:27;33.95;;;18.52;;
28844;SDS011;15976;47.938;7.758;2023-03-01T05:50:54;30.48;;;16.65;;
28844;SDS011;15976;47.938;7.758;2023-03-01T05:53:26;29.58;;;15.52;;
28844;SDS011;15976;47.938;7.758;2023-03-01T05:55:53;33.10;;;17.02;;
28844;SDS011;15976;47.938;7.758;2023-03-01T05:58:20;30.15;;;16.38;;
28844;SDS011;15976;47.938;7.758;2023-03-01T06:00:48;31.27;;;17.33;;
28844;SDS011;15976;47.938;7.758;2023-03-01T06:03:19;35.55;;;18.88;;
28844;SDS011;15976;47.938;7.758;2023-03-01T06:05:46;37.88;;;18.98;;
28844;SDS011;15976;47.938;7.758;2023-03-01T06:08:13;45.63;;;21.27;;
28844;SDS011;15976;47.938;7.758;2023-03-01T06:10:40;42.97;;;20.88;;
28844;SDS011;15976;47.938;7.758;2023-03-01T06:13:07;34.97;;;18.52;;
28844;SDS011;15976;47.938;7.758;2023-03-01T06:15:34;40.72;;;20.77;;
28844;SDS011;15976;47.938;7.758;2023-03-01T06:18:01;37.53;;;20.52;;
28844;SDS011;15976;47.938;7.758;2023-03-01T06:20:29;34.30;;;19.13;;
28844;SDS011;15976;47.938;7.758;2023-03-01T06:22:56;35.40;;;19.20;;
28844;SDS011;15976;47.938;7.758;2023-03-01T06:25:24;45.70;;;21.50;;
28844;SDS011;15976;47.938;7.758;2023-03-01T06:27:52;40.65;;;21.10;;
28844;SDS011;15976;47.938;7.758;2023-03-01T06:30:20;37.90;;;20.25;;
28844;SDS011;15976;47.938;7.758;2023-03-01T06:32:48;57.30;;;26.45;;
28844;SDS011;15976;47.938;7.758;2023-03-01T06:35:16;49.63;;;23.98;;
28844;SDS011;15976;47.938;7.758;2023-03-01T06:37:46;37.13;;;20.45;;
28844;SDS011;15976;47.938;7.758;2023-03-01T06:40:13;43.60;;;22.83;;
28844;SDS011;15976;47.938;7.758;2023-03-01T06:42:42;39.78;;;22.00;;
28844;SDS011;15976;47.938;7.758;2023-03-01T06:45:13;34.10;;;19.92;;
28844;SDS011;15976;47.938;7.758;2023-03-01T06:47:40;35.50;;;19.98;;
28844;SDS011;15976;47.938;7.758;2023-03-01T06:50:07;43.33;;;23.50;;
28844;SDS011;15976;47.938;7.758;2023-03-01T06:52:35;41.42;;;24.67;;
28844;SDS011;15976;47.938;7.758;2023-03-01T06:55:02;43.55;;;24.55;;
28844;SDS011;15976;47.938;7.758;2023-03-01T06:57:29;41.08;;;20.95;;
28844;SDS011;15976;47.938;7.758;2023-03-01T06:59:56;36.38;;;20.40;;
28844;SDS011;15976;47.938;7.758;2023-03-01T07:02:23;39.95;;;21.25;;
28844;SDS011;15976;47.938;7.758;2023-03-01T07:04:50;41.97;;;21.33;;
28844;SDS011;15976;47.938;7.758;2023-03-01T07:07:18;39.72;;;19.48;;
28844;SDS011;15976;47.938;7.758;2023-03-01T07:09:45;44.45;;;21.17;;
28844;SDS011;15976;47.938;7.758;2023-03-01T07:12:13;36.95;;;21.50;;
28844;SDS011;15976;47.938;7.758;2023-03-01T07:14:40;37.97;;;18.98;;
28844;SDS011;15976;47.938;7.758;2023-03-01T07:17:07;36.08;;;19.05;;
28844;SDS011;15976;47.938;7.758;2023-03-01T07:19:34;38.33;;;19.17;;
28844;SDS011;15976;47.938;7.758;2023-03-01T07:22:02;29.15;;;16.17;;
28844;SDS011;15976;47.938;7.758;2023-03-01T07:24:30;33.72;;;16.52;;
28844;SDS011;15976;47.938;7.758;2023-03-01T07:26:57;32.47;;;16.95;;
28844;SDS011;15976;47.938;7.758;2023-03-01T07:29:24;34.17;;;17.02;;
28844;SDS011;15976;47.938;7.758;2023-03-01T07:31:51;35.10;;;15.82;;
28844;SDS011;15976;47.938;7.758;2023-03-01T07:34:18;41.40;;;17.35;;
28844;SDS011;15976;47.938;7.758;2023-03-01T07:36:45;38.63;;;18.15;;
28844;SDS011;15976;47.938;7.758;2023-03-01T07:39:12;31.83;;;16.20;;
28844;SDS011;15976;47.938;7.758;2023-03-01T07:41:39;30.58;;;15.95;;
28844;SDS011;15976;47.938;7.758;2023-03-01T07:44:06;32.20;;;15.95;;
28844;SDS011;15976;47.938;7.758;2023-03-01T07:46:33;34.95;;;16.45;;
28844;SDS011;15976;47.938;7.758;2023-03-01T07:49:00;33.95;;;16.40;;
28844;SDS011;15976;47.938;7.758;2023-03-01T07:51:27;36.30;;;18.48;;
28844;SDS011;15976;47.938;7.758;2023-03-01T07:53:54;33.60;;;16.20;;
28844;SDS011;15976;47.938;7.758;2023-03-01T07:56:21;36.45;;;16.30;;
28844;SDS011;15976;47.938;7.758;2023-03-01T07:58:48;33.03;;;16.50;;
28844;SDS011;15976;47.938;7.758;2023-03-01T08:01:18;29.65;;;16.75;;
28844;SDS011;15976;47.938;7.758;2023-03-01T08:03:46;31.60;;;15.93;;
28844;SDS011;15976;47.938;7.758;2023-03-01T08:06:14;31.83;;;17.27;;
28844;SDS011;15976;47.938;7.758;2023-03-01T08:08:43;33.95;;;16.92;;
28844;SDS011;15976;47.938;7.758;2023-03-01T08:11:11;30.23;;;16.58;;
28844;SDS011;15976;47.938;7.758;2023-03-01T08:13:39;29.25;;;15.70;;
28844;SDS011;15976;47.938;7.758;2023-03-01T08:16:09;26.20;;;14.73;;
28844;SDS011;15976;47.938;7.758;2023-03-01T08:18:38;27.45;;;15.25;;
28844;SDS011;15976;47.938;7.758;2023-03-01T08:21:06;30.05;;;16.23;;
28844;SDS011;15976;47.938;7.758;2023-03-01T08:23:41;30.38;;;17.02;;
28844;SDS011;15976;47.938;7.758;2023-03-01T08:26:13;27.58;;;16.00;;
28844;SDS011;15976;47.938;7.758;2023-03-01T08:31:16;32.30;;;17.15;;
28844;SDS011;15976;47.938;7.758;2023-03-01T08:33:45;34.22;;;18.88;;
28844;SDS011;15976;47.938;7.758;2023-03-01T08:36:22;30.90;;;16.40;;
28844;SDS011;15976;47.938;7.758;2023-03-01T08:38:51;30.42;;;16.70;;
28844;SDS011;15976;47.938;7.758;2023-03-01T08:41:18;29.75;;;15.98;;
28844;SDS011;15976;47.938;7.758;2023-03-01T08:43:45;28.75;;;15.68;;
28844;SDS011;15976;47.938;7.758;2023-03-01T08:46:13;25.80;;;15.43;;
28844;SDS011;15976;47.938;7.758;2023-03-01T08:48:40;31.55;;;16.88;;
28844;SDS011;15976;47.938;7.758;2023-03-01T08:51:10;29.60;;;15.30;;
28844;SDS011;15976;47.938;7.758;2023-03-01T08:53:47;28.35;;;15.77;;
28844;SDS011;15976;47.938;7.758;2023-03-01T08:56:15;29.33;;;15.48;;
28844;SDS011;15976;47.938;7.758;2023-03-01T08:58:43;30.77;;;16.90;;
28844;SDS011;15976;47.938;7.758;2023-03-01T09:01:13;30.13;;;15.73;;
28844;SDS011;15976;47.938;7.758;2023-03-01T09:03:43;28.25;;;15.65;;
28844;SDS011;15976;47.938;7.758;2023-03-01T09:06:10;31.52;;;16.58;;
28844;SDS011;15976;47.938;7.758;2023-03-01T09:08:39;32.35;;;16.95;;
28844;SDS011;15976;47.938;7.758;2023-03-01T09:11:08;30.95;;;16.63;;
28844;SDS011;15976;47.938;7.758;2023-03-01T09:13:37;32.47;;;16.13;;
28844;SDS011;15976;47.938;7.758;2023-03-01T09:16:06;31.00;;;16.45;;
28844;SDS011;15976;47.938;7.758;2023-03-01T09:18:34;26.45;;;15.23;;
28844;SDS011;15976;47.938;7.758;2023-03-01T09:21:03;30.25;;;17.50;;
28844;SDS011;15976;47.938;7.758;2023-03-01T09:23:34;31.13;;;17.08;;
28844;SDS011;15976;47.938;7.758;2023-03-01T09:26:06;35.25;;;18.98;;
28844;SDS011;15976;47.938;7.758;2023-03-01T09:28:35;33.72;;;20.13;;
28844;SDS011;15976;47.938;7.758;2023-03-01T09:31:03;32.33;;;18.02;;
28844;SDS011;15976;47.938;7.758;2023-03-01T09:33:31;31.10;;;17.10;;
28844;SDS011;15976;47.938;7.758;2023-03-01T09:35:59;31.98;;;17.48;;
28844;SDS011;15976;47.938;7.758;2023-03-01T09:38:29;30.27;;;15.93;;
28844;SDS011;15976;47.938;7.758;2023-03-01T09:40:57;29.17;;;17.23;;
28844;SDS011;15976;47.938;7.758;2023-03-01T09:43:36;33.33;;;16.75;;
28844;SDS011;15976;47.938;7.758;2023-03-01T09:46:12;33.65;;;16.52;;
28844;SDS011;15976;47.938;7.758;2023-03-01T09:48:44;30.48;;;16.23;;
28844;SDS011;15976;47.938;7.758;2023-03-01T09:51:17;30.73;;;16.42;;
28844;SDS011;15976;47.938;7.758;2023-03-01T10:10:28;30.48;;;16.40;;
28844;SDS011;15976;47.938;7.758;2023-03-01T10:13:13;26.83;;;15.63;;
28844;SDS011;15976;47.938;7.758;2023-03-01T10:15:50;34.75;;;17.92;;
28844;SDS011;15976;47.938;7.758;2023-03-01T10:18:22;32.00;;;17.02;;
28844;SDS011;15976;47.938;7.758;2023-03-01T10:21:05;33.92;;;17.48;;
28844;SDS011;15976;47.938;7.758;2023-03-01T10:23:41;35.85;;;18.45;;
28844;SDS011;15976;47.938;7.758;2023-03-01T10:29:08;30.35;;;17.25;;
28844;SDS011;15976;47.938;7.758;2023-03-01T10:34:11;28.45;;;15.80;;
28844;SDS011;15976;47.938;7.758;2023-03-01T10:36:44;30.40;;;16.88;;
28844;SDS011;15976;47.938;7.758;2023-03-01T10:39:17;28.20;;;16.27;;
28844;SDS011;15976;47.938;7.758;2023-03-01T10:42:05;30.13;;;16.10;;
28844;SDS011;15976;47.938;7.758;2023-03-01T10:44:46;33.97;;;18.08;;
28844;SDS011;15976;47.938;7.758;2023-03-01T10:47:21;32.75;;;16.42;;
28844;SDS011;15976;47.938;7.758;2023-03-01T10:52:35;35.60;;;16.90;;
28844;SDS011;15976;47.938;7.758;2023-03-01T10:55:26;35.08;;;18.92;;
28844;SDS011;15976;47.938;7.758;2023-03-01T10:58:17;30.75;;;17.75;;
28844;SDS011;15976;47.938;7.758;2023-03-01T11:03:14;35.22;;;16.90;;
28844;SDS011;15976;47.938;7.758;2023-03-01T11:05:53;29.25;;;16.55;;
28844;SDS011;15976;47.938;7.758;2023-03-01T11:08:34;31.67;;;17.60;;
28844;SDS011;15976;47.938;7.758;2023-03-01T11:17:03;28.30;;;15.45;;
28844;SDS011;15976;47.938;7.758;2023-03-01T11:19:32;31.05;;;16.45;;
28844;SDS011;15976;47.938;7.758;2023-03-01T11:22:01;29.35;;;16.15;;
28844;SDS011;15976;47.938;7.758;2023-03-01T11:24:37;32.30;;;17.13;;
28844;SDS011;15976;47.938;7.758;2023-03-01T11:27:24;30.27;;;15.93;;
28844;SDS011;15976;47.938;7.758;2023-03-01T11:32:33;28.67;;;16.17;;
28844;SDS011;15976;47.938;7.758;2023-03-01T11:35:25;30.67;;;17.45;;
28844;SDS011;15976;47.938;7.758;2023-03-01T11:40:41;29.13;;;16.63;;
28844;SDS011;15976;47.938;7.758;2023-03-01T11:51:33;31.48;;;15.93;;
28844;SDS011;15976;47.938;7.758;2023-03-01T11:57:10;30.40;;;16.20;;
28844;SDS011;15976;47.938;7.758;2023-03-01T12:02:16;29.88;;;16.00;;
28844;SDS011;15976;47.938;7.758;2023-03-01T12:14:26;34.78;;;15.98;;
28844;SDS011;15976;47.938;7.758;2023-03-01T12:45:02;25.63;;;15.25;;
28844;SDS011;15976;47.938;7.758;2023-03-01T12:50:21;26.70;;;14.75;;
28844;SDS011;15976;47.938;7.758;2023-03-01T12:53:05;25.80;;;15.07;;
28844;SDS011;15976;47.938;7.758;2023-03-01T12:55:41;29.33;;;14.65;;
28844;SDS011;15976;47.938;7.758;2023-03-01T12:58:29;25.73;;;14.25;;
28844;SDS011;15976;47.938;7.758;2023-03-01T13:09:43;25.02;;;14.75;;
28844;SDS011;15976;47.938;7.758;2023-03-01T13:17:50;26.73;;;15.10;;
28844;SDS011;15976;47.938;7.758;2023-03-01T13:28:45;26.10;;;14.00;;
28844;SDS011;15976;47.938;7.758;2023-03-01T13:42:25;26.75;;;14.45;;
28844;SDS011;15976;47.938;7.758;2023-03-01T13:44:25;26.13;;;15.30;;
28844;SDS011;15976;47.938;7.758;2023-03-01T13:49:53;26.30;;;13.25;;
28844;SDS011;15976;47.938;7.758;2023-03-01T13:52:39;21.42;;;13.32;;
28844;SDS011;15976;47.938;7.758;2023-03-01T13:57:50;22.35;;;13.05;;
28844;SDS011;15976;47.938;7.758;2023-03-01T14:05:32;23.02;;;12.90;;
28844;SDS011;15976;47.938;7.758;2023-03-01T14:08:00;24.77;;;13.02;;
28844;SDS011;15976;47.938;7.758;2023-03-01T14:10:29;23.75;;;13.15;;
28844;SDS011;15976;47.938;7.758;2023-03-01T14:13:10;21.20;;;12.27;;
28844;SDS011;15976;47.938;7.758;2023-03-01T14:16:12;20.42;;;12.45;;
28844;SDS011;15976;47.938;7.758;2023-03-01T14:21:31;26.73;;;14.02;;
28844;SDS011;15976;47.938;7.758;2023-03-01T14:23:58;24.45;;;13.40;;
28844;SDS011;15976;47.938;7.758;2023-03-01T14:26:25;22.52;;;12.75;;
28844;SDS011;15976;47.938;7.758;2023-03-01T14:28:52;25.33;;;14.00;;
28844;SDS011;15976;47.938;7.758;2023-03-01T14:31:31;25.85;;;13.45;;
28844;SDS011;15976;47.938;7.758;2023-03-01T14:34:21;24.27;;;13.32;;
28844;SDS011;15976;47.938;7.758;2023-03-01T14:36:50;25.35;;;13.00;;
28844;SDS011;15976;47.938;7.758;2023-03-01T14:39:19;20.17;;;11.95;;
28844;SDS011;15976;47.938;7.758;2023-03-01T14:41:50;21.95;;;12.88;;
28844;SDS011;15976;47.938;7.758;2023-03-01T14:44:21;27.33;;;14.00;;
28844;SDS011;15976;47.938;7.758;2023-03-01T14:46:54;22.95;;;13.45;;
28844;SDS011;15976;47.938;7.758;2023-03-01T14:49:24;24.40;;;13.63;;
28844;SDS011;15976;47.938;7.758;2023-03-01T14:52:00;24.42;;;13.43;;
28844;SDS011;15976;47.938;7.758;2023-03-01T14:57:12;21.05;;;13.02;;
28844;SDS011;15976;47.938;7.758;2023-03-01T14:59:51;34.80;;;16.83;;
28844;SDS011;15976;47.938;7.758;2023-03-01T15:02:22;32.10;;;17.08;;
28844;SDS011;15976;47.938;7.758;2023-03-01T15:04:53;24.00;;;13.85;;
28844;SDS011;15976;47.938;7.758;2023-03-01T15:07:31;24.95;;;13.38;;
28844;SDS011;15976;47.938;7.758;2023-03-01T15:10:00;31.25;;;16.60;;
28844;SDS011;15976;47.938;7.758;2023-03-01T15:15:18;30.48;;;16.92;;
28844;SDS011;15976;47.938;7.758;2023-03-01T15:17:56;30.83;;;17.40;;
28844;SDS011;15976;47.938;7.758;2023-03-01T15:20:25;30.58;;;17.25;;
28844;SDS011;15976;47.938;7.758;2023-03-01T15:22:55;31.42;;;17.30;;
28844;SDS011;15976;47.938;7.758;2023-03-01T15:25:24;32.47;;;18.33;;
28844;SDS011;15976;47.938;7.758;2023-03-01T15:27:54;34.10;;;18.13;;
28844;SDS011;15976;47.938;7.758;2023-03-01T15:38:24;31.15;;;18.20;;
28844;SDS011;15976;47.938;7.758;2023-03-01T15:40:52;34.42;;;18.60;;
28844;SDS011;15976;47.938;7.758;2023-03-01T15:46:23;35.38;;;19.80;;
28844;SDS011;15976;47.938;7.758;2023-03-01T15:48:53;30.98;;;18.42;;
28844;SDS011;15976;47.938;7.758;2023-03-01T15:51:36;32.72;;;17.85;;
28844;SDS011;15976;47.938;7.758;2023-03-01T15:54:09;33.03;;;19.08;;
28844;SDS011;15976;47.938;7.758;2023-03-01T15:56:45;33.17;;;18.40;;
28844;SDS011;15976;47.938;7.758;2023-03-01T15:59:12;33.88;;;19.05;;
28844;SDS011;15976;47.938;7.758;2023-03-01T16:01:40;33.63;;;19.60;;
28844;SDS011;15976;47.938;7.758;2023-03-01T16:04:12;35.28;;;19.55;;
28844;SDS011;15976;47.938;7.758;2023-03-01T16:06:47;38.08;;;19.95;;
28844;SDS011;15976;47.938;7.758;2023-03-01T16:09:24;37.33;;;20.25;;
28844;SDS011;15976;47.938;7.758;2023-03-01T16:11:52;34.38;;;19.60;;
28844;SDS011;15976;47.938;7.758;2023-03-01T16:14:20;36.03;;;19.45;;
28844;SDS011;15976;47.938;7.758;2023-03-01T16:16:47;35.30;;;19.73;;
28844;SDS011;15976;47.938;7.758;2023-03-01T16:19:15;42.33;;;21.25;;
28844;SDS011;15976;47.938;7.758;2023-03-01T16:21:42;34.63;;;19.40;;
28844;SDS011;15976;47.938;7.758;2023-03-01T16:24:13;38.75;;;19.65;;
28844;SDS011;15976;47.938;7.758;2023-03-01T16:26:40;36.22;;;20.08;;
28844;SDS011;15976;47.938;7.758;2023-03-01T16:29:08;39.60;;;21.90;;
28844;SDS011;15976;47.938;7.758;2023-03-01T16:31:35;38.70;;;20.48;;
28844;SDS011;15976;47.938;7.758;2023-03-01T16:34:03;38.33;;;19.55;;
28844;SDS011;15976;47.938;7.758;2023-03-01T16:36:30;35.92;;;19.77;;
28844;SDS011;15976;47.938;7.758;2023-03-01T16:38:58;39.60;;;21.52;;
28844;SDS011;15976;47.938;7.758;2023-03-01T16:41:29;37.67;;;20.20;;
28844;SDS011;15976;47.938;7.758;2023-03-01T16:43:56;33.58;;;17.92;;
28844;SDS011;15976;47.938;7.758;2023-03-01T16:46:25;38.83;;;18.88;;
28844;SDS011;15976;47.938;7.758;2023-03-01T16:48:54;57.20;;;32.85;;
28844;SDS011;15976;47.938;7.758;2023-03-01T16:51:22;66.75;;;36.92;;
28844;SDS011;15976;47.938;7.758;2023-03-01T16:53:50;37.67;;;19.77;;
28844;SDS011;15976;47.938;7.758;2023-03-01T16:56:18;57.05;;;29.02;;
28844;SDS011;15976;47.938;7.758;2023-03-01T16:58:45;40.70;;;20.80;;
28844;SDS011;15976;47.938;7.758;2023-03-01T17:01:15;49.80;;;29.52;;
28844;SDS011;15976;47.938;7.758;2023-03-01T17:03:45;45.03;;;26.80;;
28844;SDS011;15976;47.938;7.758;2023-03-01T17:06:14;41.17;;;21.45;;
28844;SDS011;15976;47.938;7.758;2023-03-01T17:08:44;51.38;;;29.88;;
28844;SDS011;15976;47.938;7.758;2023-03-01T17:11:12;55.78;;;31.20;;
28844;SDS011;15976;47.938;7.758;2023-03-01T17:13:41;38.05;;;20.58;;
28844;SDS011;15976;47.938;7.758;2023-03-01T17:16:10;42.78;;;25.60;;
28844;SDS011;15976;47.938;7.758;2023-03-01T17:18:39;40.08;;;19.40;;
28844;SDS011;15976;47.938;7.758;2023-03-01T17:21:07;46.00;;;23.70;;
28844;SDS011;15976;47.938;7.758;2023-03-01T17:23:36;83.63;;;41.28;;
28844;SDS011;15976;47.938;7.758;2023-03-01T17:26:05;42.47;;;24.33;;
28844;SDS011;15976;47.938;7.758;2023-03-01T17:28:34;38.03;;;20.75;;
28844;SDS011;15976;47.938;7.758;2023-03-01T17:31:03;39.20;;;20.98;;